Time;durP1;ratioP1;P1;durP2;ratioP2;P2;SDS_P1;SDS_P2;PMS_P1;PMS_P2;Temp;Humidity;BMP_temperature;BMP_pressure;BME280_temperature;BME280_humidity;BME280_pressure;Samples;Min_cycle;Max_cycle;Signal;HPM_P1;HPM_P2
2024/04/12 00:01:47;;;;;;;30.50;13.07;;;12.70;99.90;;;;;;5446215;26;20023;-82
2024/04/12 00:04:18;;;;;;;25.83;13.18;;;12.60;99.90;;;;;;5433469;26;20027;-82
2024/04/12 00:06:49;;;;;;;26.20;12.20;;;12.50;99.90;;;;;;5451281;26;20036;-82
2024/04/12 00:09:18;;;;;;;30.45;13.38;;;12.50;99.90;;;;;;5434931;26;20042;-82
2024/04/12 00:11:54;;;;;;;30.15;12.75;;;12.50;99.90;;;;;;5431977;26;20381;-82
2024/04/12 00:14:23;;;;;;;25.42;12.00;;;12.50;99.90;;;;;;5422370;26;20027;-82
2024/04/12 00:16:52;;;;;;;25.90;12.25;;;12.50;99.90;;;;;;5448803;26;20023;-82
2024/04/12 00:19:22;;;;;;;28.52;12.25;;;12.50;99.90;;;;;;5432407;26;20040;-82
2024/04/12 00:21:52;;;;;;;23.27;11.52;;;12.50;99.90;;;;;;5468287;26;20216;-82
2024/04/12 00:24:29;;;;;;;25.60;11.95;;;12.50;99.90;;;;;;5460926;26;20369;-82
2024/04/12 00:26:58;;;;;;;22.98;11.20;;;12.50;99.90;;;;;;5488797;26;20030;-82
2024/04/12 00:29:30;;;;;;;24.35;11.55;;;12.50;99.90;;;;;;5443732;26;20023;-82
2024/04/12 00:32:13;;;;;;;21.55;10.63;;;12.50;99.90;;;;;;5446736;26;20023;-82
2024/04/12 00:35:06;;;;;;;21.88;10.35;;;12.50;99.90;;;;;;5501662;26;20022;-82
2024/04/12 00:37:33;;;;;;;21.88;10.25;;;12.50;99.90;;;;;;5488077;26;20031;-82
2024/04/12 00:40:00;;;;;;;23.58;10.23;;;12.50;99.90;;;;;;5488696;26;20027;-82
2024/04/12 00:42:35;;;;;;;21.33;9.70;;;12.70;99.90;;;;;;5439273;26;20028;-82
2024/04/12 00:45:11;;;;;;;20.15;9.73;;;12.50;99.90;;;;;;5451138;26;20333;-82
2024/04/12 00:47:41;;;;;;;21.95;9.63;;;12.50;99.90;;;;;;5467462;26;20036;-82
2024/04/12 00:50:15;;;;;;;23.08;9.98;;;12.40;99.90;;;;;;5436686;26;20031;-82
2024/04/12 00:52:44;;;;;;;19.40;9.52;;;12.40;99.90;;;;;;5453283;26;20027;-82
2024/04/12 00:55:13;;;;;;;20.92;9.70;;;12.50;99.90;;;;;;5428131;26;20043;-82
2024/04/12 00:57:43;;;;;;;19.40;9.88;;;12.50;99.90;;;;;;5452084;26;20373;-82
2024/04/12 01:00:19;;;;;;;21.15;10.43;;;12.50;99.90;;;;;;5445824;26;20801;-82
2024/04/12 01:02:48;;;;;;;21.08;10.40;;;12.50;99.90;;;;;;5450558;26;20032;-82
2024/04/12 01:05:17;;;;;;;20.13;9.73;;;12.50;99.90;;;;;;5454791;26;20028;-82
2024/04/12 01:07:49;;;;;;;22.17;10.40;;;12.50;99.90;;;;;;5455696;26;20035;-81
2024/04/12 01:10:25;;;;;;;22.02;10.00;;;12.50;99.90;;;;;;5429328;26;20032;-82
2024/04/12 01:12:55;;;;;;;24.83;10.63;;;12.50;99.90;;;;;;5442028;26;20030;-82
2024/04/12 01:15:31;;;;;;;21.65;9.75;;;12.70;99.90;;;;;;5467578;26;20027;-82
2024/04/12 01:18:04;;;;;;;24.27;10.90;;;12.50;99.90;;;;;;5453434;26;20493;-82
2024/04/12 01:20:35;;;;;;;21.48;11.38;;;12.60;99.90;;;;;;5437827;26;20036;-82
2024/04/12 01:23:04;;;;;;;24.42;11.02;;;12.60;99.90;;;;;;5447236;26;20040;-82
2024/04/12 01:25:33;;;;;;;23.23;11.52;;;12.50;99.90;;;;;;5472738;26;20036;-82
2024/04/12 01:28:04;;;;;;;27.08;11.88;;;12.50;99.90;;;;;;5433944;26;20048;-82
2024/04/12 01:30:34;;;;;;;25.95;11.35;;;12.60;99.90;;;;;;5453383;26;20032;-82
2024/04/12 01:33:06;;;;;;;25.95;12.07;;;12.60;99.90;;;;;;5453780;26;20024;-82
2024/04/12 01:35:34;;;;;;;24.00;11.98;;;12.60;99.90;;;;;;5429537;26;20027;-82
2024/04/12 01:38:17;;;;;;;29.10;13.93;;;12.60;99.90;;;;;;5453427;26;20035;-82
2024/04/12 01:40:46;;;;;;;30.65;13.57;;;12.60;99.90;;;;;;5453511;26;20034;-82
2024/04/12 01:43:18;;;;;;;29.20;14.15;;;12.60;99.90;;;;;;5458130;26;20038;-82
2024/04/12 01:45:46;;;;;;;28.25;13.93;;;12.60;99.90;;;;;;5442797;26;20028;-82
2024/04/12 01:48:14;;;;;;;29.88;14.25;;;12.60;99.90;;;;;;5452292;26;20027;-82
2024/04/12 01:50:42;;;;;;;31.58;15.65;;;12.60;99.90;;;;;;5453405;26;20463;-82
2024/04/12 01:53:15;;;;;;;31.45;15.90;;;12.60;99.90;;;;;;5440564;26;20031;-82
2024/04/12 01:55:45;;;;;;;30.52;15.13;;;12.60;99.90;;;;;;5444509;26;20365;-82
2024/04/12 01:58:19;;;;;;;29.63;15.13;;;12.60;99.90;;;;;;5390547;26;20037;-82
2024/04/12 02:00:52;;;;;;;28.88;15.07;;;12.60;99.90;;;;;;5425040;26;20031;-82
2024/04/12 02:03:21;;;;;;;33.25;16.13;;;12.60;99.90;;;;;;5448076;26;20028;-82
2024/04/12 02:05:49;;;;;;;35.88;16.50;;;12.60;99.90;;;;;;5439900;26;20024;-82
2024/04/12 02:08:17;;;;;;;33.95;16.25;;;12.60;99.90;;;;;;5443050;26;20028;-82
2024/04/12 02:10:48;;;;;;;34.08;16.30;;;12.70;99.90;;;;;;5453095;26;20035;-82
2024/04/12 02:13:22;;;;;;;38.80;16.27;;;12.60;99.90;;;;;;5420369;26;20032;-82
2024/04/12 02:15:55;;;;;;;36.45;16.95;;;12.60;99.90;;;;;;5437021;26;20031;-82
2024/04/12 02:18:23;;;;;;;39.30;15.98;;;12.70;99.90;;;;;;5423384;26;20044;-82
2024/04/12 02:20:52;;;;;;;36.03;16.42;;;12.70;99.90;;;;;;5419374;26;20032;-82
2024/04/12 02:23:20;;;;;;;38.92;17.67;;;12.70;99.90;;;;;;5455084;26;20016;-82
2024/04/12 02:25:49;;;;;;;41.95;17.45;;;12.70;99.90;;;;;;5424489;26;20024;-82
2024/04/12 02:28:17;;;;;;;38.60;17.98;;;12.70;99.90;;;;;;5417883;26;20028;-82
2024/04/12 02:30:57;;;;;;;40.33;18.10;;;12.70;99.90;;;;;;5440668;26;20024;-82
2024/04/12 02:33:32;;;;;;;43.03;17.20;;;12.60;99.90;;;;;;5441670;26;20040;-82
2024/04/12 02:36:16;;;;;;;35.72;18.05;;;12.70;99.90;;;;;;5448518;26;20373;-82
2024/04/12 02:38:49;;;;;;;38.65;18.17;;;12.70;99.90;;;;;;5452644;26;20031;-82
2024/04/12 02:41:17;;;;;;;39.97;19.20;;;12.70;99.90;;;;;;5445562;26;20484;-82
2024/04/12 02:43:54;;;;;;;43.38;19.08;;;12.70;99.90;;;;;;5438431;26;20027;-82
2024/04/12 02:46:23;;;;;;;37.70;18.23;;;12.70;99.90;;;;;;5421057;26;20036;-82
2024/04/12 02:48:51;;;;;;;40.28;18.60;;;12.70;99.90;;;;;;5446589;26;20477;-82
2024/04/12 02:51:22;;;;;;;38.35;18.20;;;12.80;99.90;;;;;;5416917;26;20489;-82
2024/04/12 02:53:50;;;;;;;39.70;19.13;;;12.80;99.90;;;;;;5428726;26;20386;-82
2024/04/12 02:56:23;;;;;;;39.00;18.65;;;12.80;99.90;;;;;;5487165;26;20035;-82
2024/04/12 02:58:52;;;;;;;38.30;18.83;;;12.80;99.90;;;;;;5461296;26;20040;-82
2024/04/12 03:01:22;;;;;;;34.78;17.60;;;12.90;99.90;;;;;;5454560;26;20032;-82
2024/04/12 03:03:51;;;;;;;35.10;18.20;;;12.80;99.90;;;;;;5485269;26;20040;-82
2024/04/12 03:06:27;;;;;;;35.38;18.17;;;12.80;99.90;;;;;;5458512;26;20031;-82
2024/04/12 03:09:02;;;;;;;37.25;18.50;;;12.80;99.90;;;;;;5447035;26;20384;-82
2024/04/12 03:11:34;;;;;;;39.22;18.13;;;12.80;99.90;;;;;;5470239;26;20389;-82
2024/04/12 03:14:09;;;;;;;36.47;18.42;;;12.80;99.90;;;;;;5443462;26;20384;-82
2024/04/12 03:16:41;;;;;;;35.30;18.25;;;12.80;99.90;;;;;;5422728;26;20043;-82
2024/04/12 03:19:12;;;;;;;37.65;17.45;;;12.80;99.90;;;;;;5452945;26;20382;-82
2024/04/12 03:21:40;;;;;;;33.55;17.92;;;12.80;99.90;;;;;;5463166;26;20377;-82
2024/04/12 03:24:09;;;;;;;34.65;17.13;;;12.80;99.90;;;;;;5445507;26;20035;-82
2024/04/12 03:26:37;;;;;;;30.73;16.33;;;12.80;99.90;;;;;;5493032;26;20484;-82
2024/04/12 03:29:05;;;;;;;30.98;15.88;;;12.80;99.90;;;;;;5437815;26;20035;-82
2024/04/12 03:31:38;;;;;;;27.25;15.65;;;12.80;99.90;;;;;;5477721;26;20024;-82
2024/04/12 03:34:07;;;;;;;26.73;14.55;;;12.90;99.90;;;;;;5455356;26;20480;-82
2024/04/12 03:42:03;;;;;;;26.48;14.43;;;12.80;99.90;;;;;;5472642;26;20032;-82
2024/04/12 03:44:34;;;;;;;25.95;13.70;;;12.80;99.90;;;;;;5456370;26;20030;-82
2024/04/12 03:47:08;;;;;;;24.83;13.70;;;12.80;99.90;;;;;;5475902;26;20027;-82
2024/04/12 03:49:39;;;;;;;28.38;14.43;;;12.80;99.90;;;;;;5434354;26;20035;-82
2024/04/12 03:52:12;;;;;;;27.63;15.02;;;12.80;99.90;;;;;;5446663;26;20377;-82
2024/04/12 03:54:42;;;;;;;24.80;13.88;;;12.80;99.90;;;;;;5455155;26;20034;-82
2024/04/12 03:57:12;;;;;;;26.60;13.93;;;12.80;99.90;;;;;;5489810;26;20018;-82
2024/04/12 03:59:43;;;;;;;23.90;13.50;;;12.80;99.90;;;;;;5489028;26;20402;-82
2024/04/12 04:02:13;;;;;;;25.15;15.15;;;12.80;99.90;;;;;;5453560;26;20026;-82
2024/04/12 04:04:45;;;;;;;22.23;12.95;;;12.80;99.90;;;;;;5458034;26;20023;-81
2024/04/12 04:07:17;;;;;;;26.17;14.77;;;12.80;99.90;;;;;;5447609;26;20031;-82
2024/04/12 04:09:46;;;;;;;24.90;14.27;;;12.90;99.90;;;;;;5447218;26;20031;-82
2024/04/12 04:12:15;;;;;;;25.50;14.23;;;12.90;99.90;;;;;;5430209;26;20032;-82
2024/04/12 04:14:48;;;;;;;22.70;13.27;;;12.90;99.90;;;;;;5431599;26;20028;-82
2024/04/12 04:17:18;;;;;;;23.90;13.43;;;12.90;99.90;;;;;;5469339;26;20027;-82
2024/04/12 04:19:46;;;;;;;22.05;12.60;;;12.90;99.90;;;;;;5451595;26;20036;-82
2024/04/12 04:24:54;;;;;;;20.30;12.60;;;12.90;99.90;;;;;;5486518;26;20027;-82
2024/04/12 04:27:23;;;;;;;19.73;11.68;;;12.90;99.90;;;;;;5481823;26;20027;-82
2024/04/12 04:29:52;;;;;;;21.25;12.48;;;12.90;99.90;;;;;;5441368;26;20027;-82
2024/04/12 04:32:21;;;;;;;20.50;12.18;;;12.90;99.90;;;;;;5434363;26;20099;-82
2024/04/12 04:35:04;;;;;;;21.63;12.13;;;12.90;99.90;;;;;;5457244;26;20031;-83
2024/04/12 04:37:39;;;;;;;24.35;11.68;;;12.90;99.90;;;;;;5488709;26;20026;-82
2024/04/12 04:40:16;;;;;;;20.45;12.80;;;13.00;99.90;;;;;;5455002;26;20035;-82
2024/04/12 04:42:45;;;;;;;20.30;12.40;;;12.90;99.90;;;;;;5473152;26;20058;-82
2024/04/12 04:45:17;;;;;;;19.88;11.65;;;12.90;99.90;;;;;;5451168;26;20032;-82
2024/04/12 04:47:45;;;;;;;22.33;12.57;;;12.90;99.90;;;;;;5446313;26;20026;-82
2024/04/12 04:50:14;;;;;;;19.98;12.20;;;12.90;99.90;;;;;;5456105;26;20019;-82
2024/04/12 04:52:42;;;;;;;22.02;13.23;;;12.90;99.90;;;;;;5448001;26;20027;-82
2024/04/12 04:55:12;;;;;;;22.63;13.48;;;12.90;99.90;;;;;;5502652;26;20027;-82
2024/04/12 04:57:43;;;;;;;24.15;13.15;;;12.90;99.90;;;;;;5459509;26;20382;-82
2024/04/12 05:00:18;;;;;;;18.67;12.25;;;12.90;99.90;;;;;;5446332;26;20030;-82
2024/04/12 05:02:50;;;;;;;25.77;12.70;;;12.90;99.90;;;;;;5477074;26;20036;-82
2024/04/12 05:05:28;;;;;;;19.60;12.70;;;12.90;99.90;;;;;;5424228;26;20041;-82
2024/04/12 05:07:57;;;;;;;22.40;12.65;;;13.00;99.90;;;;;;5424813;26;20040;-82
2024/04/12 05:10:33;;;;;;;21.75;11.95;;;13.00;99.90;;;;;;5455154;26;20480;-82
2024/04/12 05:13:06;;;;;;;20.65;12.60;;;13.00;99.90;;;;;;5471752;26;20026;-82
2024/04/12 05:18:08;;;;;;;21.55;12.57;;;13.10;99.90;;;;;;5490990;26;20376;-82
2024/04/12 05:20:40;;;;;;;22.40;12.70;;;13.10;99.90;;;;;;5442795;26;20856;-83
2024/04/12 05:23:13;;;;;;;21.83;13.23;;;13.10;99.90;;;;;;5442853;26;20035;-82
2024/04/12 05:25:43;;;;;;;18.30;11.32;;;13.10;99.90;;;;;;5436328;26;20031;-83
2024/04/12 05:28:12;;;;;;;20.30;12.38;;;13.30;99.90;;;;;;5446241;26;20372;-82
2024/04/12 05:30:44;;;;;;;19.35;11.65;;;13.10;99.90;;;;;;5490831;26;20034;-83
2024/04/12 05:33:16;;;;;;;18.17;11.05;;;13.10;99.90;;;;;;5441290;26;20043;-82
2024/04/12 05:35:46;;;;;;;17.83;10.40;;;13.10;99.90;;;;;;5458836;26;20375;-83
2024/04/12 05:38:20;;;;;;;17.95;8.88;;;13.10;99.90;;;;;;5468034;26;20489;-82
2024/04/12 05:40:52;;;;;;;15.45;8.80;;;13.10;99.90;;;;;;5470067;26;20030;-82
2024/04/12 05:43:23;;;;;;;16.33;8.55;;;13.10;99.90;;;;;;5462570;26;20035;-83
2024/04/12 05:45:53;;;;;;;15.05;8.20;;;13.10;99.90;;;;;;5444844;26;20379;-82
2024/04/12 05:48:21;;;;;;;14.40;8.57;;;13.10;99.90;;;;;;5467500;26;20027;-82
2024/04/12 05:50:53;;;;;;;12.70;7.38;;;13.10;99.90;;;;;;5463645;26;20024;-82
2024/04/12 05:53:24;;;;;;;13.23;6.85;;;13.10;99.90;;;;;;5455134;26;20028;-82
2024/04/12 05:58:40;;;;;;;13.55;7.93;;;13.10;99.90;;;;;;5478637;26;20023;-82
2024/04/12 06:01:08;;;;;;;11.15;7.10;;;13.10;99.90;;;;;;5427830;26;20032;-83
2024/04/12 06:03:48;;;;;;;13.05;6.95;;;13.10;99.90;;;;;;5462298;26;20035;-82
2024/04/12 06:06:16;;;;;;;13.23;7.45;;;13.20;99.90;;;;;;5459818;26;20373;-83
2024/04/12 06:08:45;;;;;;;11.32;7.40;;;13.10;99.90;;;;;;5427618;26;20027;-83
2024/04/12 06:11:13;;;;;;;11.00;6.85;;;13.10;99.90;;;;;;5429348;26;20030;-83
2024/04/12 06:13:43;;;;;;;14.68;8.15;;;13.10;99.90;;;;;;5483859;26;20035;-83
2024/04/12 06:16:11;;;;;;;12.38;7.13;;;13.10;99.90;;;;;;5432750;26;20046;-83
2024/04/12 06:18:39;;;;;;;11.98;7.22;;;13.10;99.90;;;;;;5469354;26;20091;-83
2024/04/12 06:21:10;;;;;;;11.90;7.30;;;13.10;99.90;;;;;;5459540;26;20024;-83
2024/04/12 06:23:38;;;;;;;14.23;7.22;;;13.10;99.90;;;;;;5455687;26;20842;-83
2024/04/12 06:26:06;;;;;;;12.45;6.53;;;13.10;99.90;;;;;;5444621;26;20036;-82
2024/04/12 06:28:36;;;;;;;10.77;6.45;;;13.10;99.90;;;;;;5447049;26;20028;-82
2024/04/12 06:31:06;;;;;;;13.90;6.40;;;13.00;99.90;;;;;;5430872;26;20376;-86
2024/04/12 06:33:33;;;;;;;10.20;6.55;;;13.00;99.90;;;;;;5456518;26;20393;-84
2024/04/12 06:36:05;;;;;;;12.52;6.80;;;13.10;99.90;;;;;;5425981;26;20036;-83
2024/04/12 06:38:33;;;;;;;12.88;6.95;;;13.10;99.90;;;;;;5479812;26;20055;-84
2024/04/12 06:41:03;;;;;;;9.65;6.30;;;13.10;99.90;;;;;;5438743;26;20031;-84
2024/04/12 06:43:34;;;;;;;10.43;6.28;;;13.10;99.90;;;;;;5445027;26;20027;-84
2024/04/12 06:46:11;;;;;;;12.10;6.18;;;13.10;99.90;;;;;;5446765;26;20026;-84
2024/04/12 06:48:41;;;;;;;8.75;5.53;;;13.10;99.90;;;;;;5457058;26;20035;-84
2024/04/12 06:51:13;;;;;;;9.13;5.68;;;13.20;99.90;;;;;;5430120;26;20391;-84
2024/04/12 06:53:44;;;;;;;9.25;4.80;;;13.10;99.90;;;;;;5475043;26;20026;-84
2024/04/12 06:56:19;;;;;;;11.00;5.32;;;13.10;99.90;;;;;;5451582;26;20031;-84
2024/04/12 06:58:48;;;;;;;9.95;5.20;;;13.10;99.90;;;;;;5435544;26;20034;-83
2024/04/12 07:01:21;;;;;;;8.68;5.13;;;13.10;99.90;;;;;;5471154;26;20036;-84
2024/04/12 07:03:52;;;;;;;11.35;5.18;;;13.10;99.90;;;;;;5433092;26;20031;-84
2024/04/12 07:06:20;;;;;;;10.63;5.82;;;13.10;99.90;;;;;;5429345;26;20027;-84
2024/04/12 07:08:50;;;;;;;7.55;4.90;;;13.20;99.90;;;;;;5433894;26;20373;-83
2024/04/12 07:11:19;;;;;;;10.48;6.25;;;13.20;99.90;;;;;;5446704;26;20042;-84
2024/04/12 07:13:50;;;;;;;10.38;5.43;;;13.10;99.90;;;;;;5483633;26;20053;-84
2024/04/12 07:16:23;;;;;;;10.85;5.80;;;13.20;99.90;;;;;;5503962;26;20033;-83
2024/04/12 07:18:51;;;;;;;11.75;6.60;;;13.20;99.90;;;;;;5423247;26;20031;-84
2024/04/12 07:21:22;;;;;;;11.82;6.47;;;13.20;99.90;;;;;;5484522;26;20033;-84
2024/04/12 07:23:50;;;;;;;10.95;5.32;;;13.30;99.90;;;;;;5456847;26;20031;-84
2024/04/12 07:26:26;;;;;;;9.02;5.82;;;13.30;99.90;;;;;;5468402;26;20483;-83
2024/04/12 07:29:01;;;;;;;12.48;6.40;;;13.30;99.90;;;;;;5477220;26;20035;-83
2024/04/12 07:31:34;;;;;;;11.18;6.15;;;13.30;99.90;;;;;;5489399;26;20022;-84
2024/04/12 07:34:05;;;;;;;12.23;6.57;;;13.40;99.90;;;;;;5457961;26;20031;-84
2024/04/12 07:36:34;;;;;;;12.57;6.88;;;13.40;99.90;;;;;;5437810;26;20382;-84
2024/04/12 07:39:03;;;;;;;11.13;6.78;;;13.40;99.90;;;;;;5443141;26;20027;-84
2024/04/12 07:41:33;;;;;;;13.35;7.00;;;13.40;99.90;;;;;;5448484;26;20026;-84
2024/04/12 07:44:04;;;;;;;11.70;6.75;;;13.40;99.90;;;;;;5439652;26;20031;-84
2024/04/12 07:46:35;;;;;;;12.65;6.78;;;13.40;99.90;;;;;;5472820;26;20032;-83
2024/04/12 07:49:03;;;;;;;12.93;7.18;;;13.40;99.90;;;;;;5485344;26;20030;-83
2024/04/12 07:51:31;;;;;;;13.65;7.32;;;13.50;99.90;;;;;;5473719;26;20031;-83
2024/04/12 07:54:03;;;;;;;18.50;8.13;;;13.60;99.90;;;;;;5477203;26;20386;-83
2024/04/12 07:56:38;;;;;;;11.43;7.50;;;13.70;99.90;;;;;;5453596;26;20385;-83
2024/04/12 07:59:25;;;;;;;13.75;7.50;;;13.70;99.90;;;;;;5449334;26;20031;-83
2024/04/12 08:01:53;;;;;;;12.90;7.68;;;13.80;99.90;;;;;;5453735;26;20036;-83
2024/04/12 08:04:24;;;;;;;13.50;7.35;;;13.90;99.90;;;;;;5454934;26;20513;-83
2024/04/12 08:06:56;;;;;;;13.15;7.40;;;13.90;99.90;;;;;;5445920;26;20023;-83
2024/04/12 08:09:34;;;;;;;14.38;7.72;;;14.00;99.90;;;;;;5483035;26;20027;-83
2024/04/12 08:12:13;;;;;;;13.70;7.90;;;14.10;99.90;;;;;;5434085;26;20027;-83
2024/04/12 08:14:51;;;;;;;15.80;7.53;;;14.10;99.90;;;;;;5481322;26;20030;-83
2024/04/12 08:17:23;;;;;;;13.18;6.95;;;14.10;99.90;;;;;;5439683;26;20488;-83
2024/04/12 08:19:55;;;;;;;14.00;7.65;;;14.20;99.90;;;;;;5489871;26;20039;-83
2024/04/12 08:22:25;;;;;;;14.82;7.82;;;14.20;99.90;;;;;;5461074;26;20035;-83
2024/04/12 08:24:54;;;;;;;13.25;7.03;;;14.40;99.90;;;;;;5460184;26;20027;-83
2024/04/12 08:27:25;;;;;;;11.80;7.03;;;14.50;99.90;;;;;;5450172;26;20028;-83
2024/04/12 08:29:55;;;;;;;10.55;6.65;;;14.60;99.90;;;;;;5486578;26;20383;-83
2024/04/12 08:32:33;;;;;;;12.10;7.25;;;14.70;99.90;;;;;;5487128;26;20932;-83
2024/04/12 08:35:06;;;;;;;11.30;6.55;;;14.80;99.90;;;;;;5459338;26;20027;-83
2024/04/12 08:37:37;;;;;;;10.73;6.68;;;14.90;99.90;;;;;;5446855;26;20031;-83
2024/04/12 08:40:09;;;;;;;10.57;6.75;;;14.90;99.90;;;;;;5428518;26;20032;-83
2024/04/12 08:42:38;;;;;;;9.02;5.90;;;15.10;99.90;;;;;;5483313;26;20039;-83
2024/04/12 08:45:13;;;;;;;10.23;5.80;;;15.10;99.90;;;;;;5465673;26;20023;-83
2024/04/12 08:47:51;;;;;;;10.70;5.55;;;15.30;99.90;;;;;;5461127;26;20035;-83
2024/04/12 08:50:24;;;;;;;8.20;5.18;;;15.50;99.90;;;;;;5449571;26;20391;-83
2024/04/12 08:52:53;;;;;;;9.00;5.10;;;15.60;99.90;;;;;;5437052;26;20026;-83
2024/04/12 08:55:23;;;;;;;7.53;4.55;;;15.70;99.90;;;;;;5460686;26;20039;-83
2024/04/12 08:58:02;;;;;;;10.30;3.95;;;15.80;99.90;;;;;;5460835;26;20031;-83
2024/04/12 09:00:33;;;;;;;7.13;4.20;;;15.80;99.90;;;;;;5459989;26;20027;-83
2024/04/12 09:03:04;;;;;;;5.85;3.47;;;15.90;99.90;;;;;;5474546;26;20033;-83
2024/04/12 09:05:33;;;;;;;8.48;3.50;;;16.00;99.90;;;;;;5484947;26;20028;-83
2024/04/12 09:08:03;;;;;;;6.07;3.60;;;16.10;99.90;;;;;;5446916;26;20023;-83
2024/04/12 09:10:35;;;;;;;6.65;3.58;;;16.20;99.90;;;;;;5506533;26;20372;-83
2024/04/12 09:13:08;;;;;;;8.07;3.30;;;16.30;99.90;;;;;;5480405;26;20031;-83
2024/04/12 09:15:45;;;;;;;4.95;2.95;;;16.40;99.90;;;;;;5449474;26;20039;-83
2024/04/12 09:18:14;;;;;;;6.43;3.38;;;16.40;99.90;;;;;;5466258;26;20035;-83
2024/04/12 09:20:52;;;;;;;5.78;2.85;;;16.60;99.90;;;;;;5430436;26;20027;-83
2024/04/12 09:23:32;;;;;;;4.72;2.67;;;16.60;99.90;;;;;;5431239;26;20028;-84
2024/04/12 09:26:21;;;;;;;7.72;2.75;;;16.70;99.90;;;;;;5461036;26;20046;-84
2024/04/12 09:29:01;;;;;;;8.07;2.97;;;16.80;99.90;;;;;;5509290;26;20489;-84
2024/04/12 09:34:35;;;;;;;5.68;2.58;;;16.90;99.90;;;;;;5479021;26;20040;-84
2024/04/12 09:37:28;;;;;;;7.57;2.90;;;17.10;99.90;;;;;;5449680;26;20039;-84
2024/04/12 09:45:21;;;;;;;6.60;2.83;;;17.30;99.90;;;;;;5479430;26;20031;-84
2024/04/12 10:38:37;;;;;;;5.47;2.50;;;18.60;99.90;;;;;;5465917;26;20643;-84
2024/04/12 10:41:07;;;;;;;7.47;2.45;;;18.40;99.90;;;;;;5490427;26;20035;-84
2024/04/12 10:43:35;;;;;;;4.95;2.28;;;18.60;99.90;;;;;;5453254;26;20030;-84
2024/04/12 10:46:09;;;;;;;6.57;2.40;;;18.70;99.90;;;;;;5427177;26;20036;-84
2024/04/12 10:48:38;;;;;;;5.50;2.15;;;18.70;99.90;;;;;;5458692;26;20477;-83
2024/04/12 10:51:08;;;;;;;7.10;2.20;;;18.80;99.90;;;;;;5451156;26;20039;-84
2024/04/12 10:53:38;;;;;;;6.95;2.20;;;18.70;99.90;;;;;;5428987;26;20027;-84
2024/04/12 10:56:07;;;;;;;4.50;2.00;;;18.70;99.90;;;;;;5459099;26;20026;-84
2024/04/12 10:58:48;;;;;;;5.50;2.00;;;18.70;99.90;;;;;;5442252;26;20035;-84
2024/04/12 11:01:16;;;;;;;5.18;2.20;;;18.60;99.90;;;;;;5442594;26;20038;-84
2024/04/12 11:03:56;;;;;;;7.28;2.35;;;18.50;99.90;;;;;;5439483;26;20038;-83
2024/04/12 11:06:31;;;;;;;5.45;2.15;;;18.30;99.90;;;;;;5442347;26;20027;-84
2024/04/12 11:09:01;;;;;;;6.57;2.50;;;18.40;99.90;;;;;;5424863;26;20031;-83
2024/04/12 11:11:32;;;;;;;6.40;2.78;;;18.30;99.90;;;;;;5439599;26;20031;-85
2024/04/12 11:14:01;;;;;;;4.72;2.22;;;18.30;99.90;;;;;;5451000;26;20027;-84
2024/04/12 11:33:12;;;;;;;5.82;1.75;;;18.80;99.90;;;;;;5484248;26;20031;-87
2024/04/12 11:35:41;;;;;;;4.60;1.90;;;19.00;99.90;;;;;;5459212;26;20372;-87
2024/04/12 11:38:13;;;;;;;6.20;1.80;;;19.00;99.90;;;;;;5458299;26;20039;-87
2024/04/12 11:40:41;;;;;;;5.75;1.80;;;19.00;99.90;;;;;;5467009;26;20040;-87
2024/04/12 11:43:09;;;;;;;5.85;2.08;;;18.80;99.90;;;;;;5463298;26;20031;-88
2024/04/12 11:45:41;;;;;;;8.02;2.00;;;18.80;99.90;;;;;;5464517;26;20485;-88
2024/04/12 11:48:14;;;;;;;5.85;1.90;;;18.70;99.90;;;;;;5461829;26;20024;-87
2024/04/12 11:50:43;;;;;;;4.70;2.03;;;18.80;99.90;;;;;;5449872;26;20022;-87
2024/04/12 11:53:11;;;;;;;6.32;1.80;;;18.80;99.90;;;;;;5447708;26;20410;-87
2024/04/12 11:55:42;;;;;;;4.03;1.35;;;18.90;99.90;;;;;;5461439;26;20027;-87
2024/04/12 11:58:10;;;;;;;4.97;1.77;;;18.80;99.90;;;;;;5449666;26;20035;-87
2024/04/12 12:00:40;;;;;;;5.57;1.83;;;18.80;99.90;;;;;;5440441;26;20027;-87
2024/04/12 12:03:15;;;;;;;5.53;1.58;;;18.70;99.90;;;;;;5435453;26;20022;-87
2024/04/12 12:05:43;;;;;;;;;;;18.60;99.90;;;;;;5436414;26;20054;-87
2024/04/12 12:08:13;;;;;;;4.03;1.48;;;18.50;99.90;;;;;;5434770;26;19957;-87
2024/04/12 12:10:44;;;;;;;5.70;1.65;;;18.50;99.90;;;;;;5466076;26;20038;-87
2024/04/12 12:13:13;;;;;;;4.13;1.30;;;18.50;99.90;;;;;;5486694;26;20026;-87
2024/04/12 12:15:42;;;;;;;9.43;1.70;;;18.00;99.90;;;;;;5489106;26;20026;-87
2024/04/12 12:18:10;;;;;;;4.20;1.02;;;18.60;99.90;;;;;;5435378;26;20035;-87
2024/04/12 12:20:38;;;;;;;7.20;1.58;;;18.70;99.90;;;;;;5449421;26;20028;-88
2024/04/12 12:23:06;;;;;;;5.10;1.80;;;18.60;99.90;;;;;;5432805;26;20039;-87
2024/04/12 12:25:35;;;;;;;6.57;1.80;;;18.60;99.90;;;;;;5428478;26;20031;-88
2024/04/12 12:28:04;;;;;;;5.07;1.25;;;18.50;99.80;;;;;;5458409;26;20031;-87
2024/04/12 12:30:33;;;;;;;4.55;1.50;;;18.50;99.90;;;;;;5484160;26;20645;-87
2024/04/12 12:33:07;;;;;;;6.57;1.60;;;18.50;99.90;;;;;;5459388;26;20023;-87
2024/04/12 12:35:35;;;;;;;6.35;1.33;;;18.60;99.90;;;;;;5446131;26;20027;-88
2024/04/12 12:38:03;;;;;;;6.45;1.77;;;18.50;99.90;;;;;;5479286;26;20023;-88
2024/04/12 12:40:31;;;;;;;5.85;1.33;;;18.60;99.90;;;;;;5468142;26;20391;-88
2024/04/12 12:42:59;;;;;;;2.90;1.00;;;18.40;99.70;;;;;;5428102;26;20026;-87
2024/04/12 12:45:27;;;;;;;5.07;1.60;;;18.50;99.90;;;;;;5423044;26;20023;-88
2024/04/12 12:47:55;;;;;;;7.75;1.63;;;18.40;99.90;;;;;;5478820;26;20026;-88
2024/04/12 12:50:24;;;;;;;9.07;2.10;;;18.40;99.90;;;;;;5486392;26;20031;-87
2024/04/12 12:52:52;;;;;;;4.07;1.48;;;18.50;99.90;;;;;;5428634;26;20029;-87
2024/04/12 12:55:22;;;;;;;4.65;1.58;;;18.60;99.90;;;;;;5444926;26;20024;-87
2024/04/12 12:58:09;;;;;;;8.35;2.00;;;18.70;99.90;;;;;;5437788;26;20027;-87
2024/04/12 13:00:42;;;;;;;4.75;1.42;;;18.70;99.90;;;;;;5424109;26;20027;-87
2024/04/12 13:03:12;;;;;;;5.32;1.38;;;18.80;99.90;;;;;;5437299;26;20032;-87
2024/04/12 13:05:40;;;;;;;5.68;1.90;;;18.90;99.90;;;;;;5461351;26;20039;-87
2024/04/12 13:08:08;;;;;;;5.28;1.50;;;18.80;99.90;;;;;;5453915;26;20031;-87
2024/04/12 13:10:37;;;;;;;6.40;1.38;;;18.80;99.90;;;;;;5456191;26;20027;-87
2024/04/12 13:13:06;;;;;;;5.50;1.35;;;18.90;99.90;;;;;;5432724;26;20030;-87
2024/04/12 13:15:33;;;;;;;8.43;1.63;;;18.80;99.90;;;;;;5492900;26;20023;-88
2024/04/12 13:18:02;;;;;;;5.28;1.25;;;18.70;99.90;;;;;;5458958;26;20040;-87
2024/04/12 13:20:35;;;;;;;5.25;1.30;;;18.70;99.90;;;;;;5483591;26;20475;-87
2024/04/12 13:23:03;;;;;;;5.15;1.27;;;18.70;99.90;;;;;;5412508;26;20030;-88
2024/04/12 13:25:31;;;;;;;4.80;1.25;;;18.70;98.70;;;;;;5483623;26;20027;-88
2024/04/12 13:27:59;;;;;;;6.40;1.63;;;18.60;99.10;;;;;;5458116;26;20027;-88
2024/04/12 13:30:30;;;;;;;5.80;1.25;;;18.50;99.40;;;;;;5453219;26;20019;-88
2024/04/12 13:32:58;;;;;;;5.72;1.45;;;18.60;99.90;;;;;;5456700;26;20036;-87
2024/04/12 13:35:28;;;;;;;6.68;1.67;;;18.70;99.90;;;;;;5464026;26;20030;-88
2024/04/12 13:37:56;;;;;;;8.15;1.77;;;18.60;99.90;;;;;;5442523;26;20027;-87
2024/04/12 13:40:25;;;;;;;9.13;1.63;;;18.60;99.90;;;;;;5426512;26;20110;-88
2024/04/12 13:42:59;;;;;;;6.88;1.70;;;18.60;99.90;;;;;;5459595;26;20023;-88
2024/04/12 13:51:01;;;;;;;9.55;1.77;;;18.50;99.90;;;;;;5464665;26;20385;-87
2024/04/12 13:53:32;;;;;;;6.97;1.23;;;18.50;99.90;;;;;;5446859;26;20028;-87
2024/04/12 13:58:56;;;;;;;8.27;1.55;;;18.50;99.90;;;;;;5476582;26;20023;-88
2024/04/12 14:01:29;;;;;;;9.07;1.70;;;18.40;99.20;;;;;;5434796;26;20031;-88
2024/04/12 14:04:02;;;;;;;4.68;1.35;;;18.40;98.20;;;;;;5468397;26;20023;-87
2024/04/12 14:06:34;;;;;;;6.85;1.20;;;18.40;99.20;;;;;;5442878;26;20031;-87
2024/04/12 14:09:12;;;;;;;7.72;1.35;;;18.40;99.40;;;;;;5458051;26;20027;-87
2024/04/12 14:11:41;;;;;;;6.25;1.50;;;18.20;97.50;;;;;;5440641;26;20027;-87
2024/04/12 14:14:09;;;;;;;4.55;1.23;;;18.30;99.30;;;;;;5455006;26;20026;-87
2024/04/12 14:16:42;;;;;;;6.90;1.25;;;18.30;99.40;;;;;;5459886;26;20023;-87
2024/04/12 14:19:20;;;;;;;5.43;1.05;;;18.30;99.10;;;;;;5444750;26;20026;-87
2024/04/12 14:21:55;;;;;;;4.20;1.00;;;18.10;98.70;;;;;;5460072;26;20030;-87
2024/04/12 14:27:13;;;;;;;4.63;1.33;;;18.00;97.40;;;;;;5483351;26;20026;-87
2024/04/12 14:29:43;;;;;;;8.45;1.58;;;18.00;98.50;;;;;;5455838;26;20031;-86
2024/04/12 14:32:11;;;;;;;10.48;1.48;;;17.90;98.90;;;;;;5449449;26;20027;-87
2024/04/12 14:34:42;;;;;;;5.57;1.38;;;18.00;99.40;;;;;;5472506;26;20496;-87
2024/04/12 14:37:13;;;;;;;7.35;1.60;;;18.00;99.70;;;;;;5435602;26;20031;-87